sensor_id;sensor_type;location;lat;lon;timestamp;pressure;altitude;pressure_sealevel;temperature;humidity
79316;BME280;68779;50.036;19.964;2023-04-03T00:02:28;102009.34;;;5.99;67.70
79316;BME280;68779;50.036;19.964;2023-04-03T00:33:07;102010.39;;;6.12;67.79
79316;BME280;68779;50.036;19.964;2023-04-03T01:03:53;102030.07;;;5.65;68.83
79316;BME280;68779;50.036;19.964;2023-04-03T01:19:16;102047.92;;;5.68;67.78
79316;BME280;68779;50.036;19.964;2023-04-03T01:50:00;102068.99;;;5.44;68.76
79316;BME280;68779;50.036;19.964;2023-04-03T02:05:14;102065.96;;;5.50;68.35
79316;BME280;68779;50.036;19.964;2023-04-03T02:35:56;102081.06;;;5.37;68.91
79316;BME280;68779;50.036;19.964;2023-04-03T03:06:42;102101.60;;;5.23;68.77
79316;BME280;68779;50.036;19.964;2023-04-03T03:37:25;102108.45;;;5.13;68.40
79316;BME280;68779;50.036;19.964;2023-04-03T03:52:45;102118.27;;;5.14;68.87
79316;BME280;68779;50.036;19.964;2023-04-03T04:08:00;102129.80;;;4.81;68.97
79316;BME280;68779;50.036;19.964;2023-04-03T04:23:14;102139.65;;;5.00;68.21
79316;BME280;68779;50.036;19.964;2023-04-03T04:38:27;102148.29;;;4.89;68.36
79316;BME280;68779;50.036;19.964;2023-04-03T04:53:43;102176.37;;;4.66;68.35
79316;BME280;68779;50.036;19.964;2023-04-03T05:08:57;102182.91;;;4.61;68.37
79316;BME280;68779;50.036;19.964;2023-04-03T05:24:13;102187.77;;;4.90;68.01
79316;BME280;68779;50.036;19.964;2023-04-03T05:39:33;102209.34;;;4.90;68.56
79316;BME280;68779;50.036;19.964;2023-04-03T05:54:47;102215.17;;;4.81;68.00
79316;BME280;68779;50.036;19.964;2023-04-03T06:10:02;102243.40;;;4.54;68.20
79316;BME280;68779;50.036;19.964;2023-04-03T06:25:18;102244.43;;;4.70;67.42
79316;BME280;68779;50.036;19.964;2023-04-03T06:40:32;102261.23;;;4.56;67.10
79316;BME280;68779;50.036;19.964;2023-04-03T06:55:45;102273.34;;;4.66;65.81
79316;BME280;68779;50.036;19.964;2023-04-03T07:11:00;102280.91;;;4.77;63.22
79316;BME280;68779;50.036;19.964;2023-04-03T07:26:16;102295.05;;;5.01;62.19
79316;BME280;68779;50.036;19.964;2023-04-03T07:41:29;102305.69;;;5.04;60.49
79316;BME280;68779;50.036;19.964;2023-04-03T07:56:44;102325.74;;;5.52;58.75
79316;BME280;68779;50.036;19.964;2023-04-03T08:12:00;102323.68;;;5.93;59.56
79316;BME280;68779;50.036;19.964;2023-04-03T08:27:14;102329.75;;;5.80;58.77
79316;BME280;68779;50.036;19.964;2023-04-03T09:13:26;102361.15;;;5.99;57.38
79316;BME280;68779;50.036;19.964;2023-04-03T09:28:43;102396.51;;;5.57;57.69
79316;BME280;68779;50.036;19.964;2023-04-03T09:43:59;102420.05;;;5.73;58.38
79316;BME280;68779;50.036;19.964;2023-04-03T09:59:15;102427.50;;;5.68;55.96
79316;BME280;68779;50.036;19.964;2023-04-03T10:14:34;102423.09;;;5.84;57.50
79316;BME280;68779;50.036;19.964;2023-04-03T10:45:26;102439.21;;;6.04;55.10
79316;BME280;68779;50.036;19.964;2023-04-03T16:19:36;102369.09;;;7.50;42.74
79316;BME280;68779;50.036;19.964;2023-04-03T16:34:52;102380.95;;;7.48;41.92
79316;BME280;68779;50.036;19.964;2023-04-03T16:50:12;102391.84;;;6.82;42.18
79316;BME280;68779;50.036;19.964;2023-04-03T17:10:52;102410.44;;;5.86;44.81
79316;BME280;68779;50.036;19.964;2023-04-03T17:26:11;102421.24;;;5.48;45.83
79316;BME280;68779;50.036;19.964;2023-04-03T17:41:25;102432.53;;;5.19;48.91
79316;BME280;68779;50.036;19.964;2023-04-03T17:56:48;102441.56;;;4.79;50.36
79316;BME280;68779;50.036;19.964;2023-04-03T18:12:06;102461.03;;;4.66;49.78
79316;BME280;68779;50.036;19.964;2023-04-03T18:27:24;102469.51;;;4.37;51.32
79316;BME280;68779;50.036;19.964;2023-04-03T18:42:42;102466.65;;;4.19;51.61
79316;BME280;68779;50.036;19.964;2023-04-03T18:57:57;102456.38;;;4.07;52.53
79316;BME280;68779;50.036;19.964;2023-04-03T19:13:10;102472.74;;;3.81;54.31
79316;BME280;68779;50.036;19.964;2023-04-03T19:28:26;102463.98;;;3.76;54.72
79316;BME280;68779;50.036;19.964;2023-04-03T19:43:40;102464.33;;;3.89;54.25
79316;BME280;68779;50.036;19.964;2023-04-03T19:58:54;102471.55;;;3.88;54.80
79316;BME280;68779;50.036;19.964;2023-04-03T20:14:11;102469.48;;;3.95;54.47
79316;BME280;68779;50.036;19.964;2023-04-03T20:29:25;102464.41;;;3.87;54.49
79316;BME280;68779;50.036;19.964;2023-04-03T20:44:41;102475.37;;;4.04;54.71
79316;BME280;68779;50.036;19.964;2023-04-03T20:59:58;102482.25;;;3.90;54.59
79316;BME280;68779;50.036;19.964;2023-04-03T21:46:13;102490.05;;;3.96;55.13
79316;BME280;68779;50.036;19.964;2023-04-03T22:01:29;102468.23;;;4.03;55.19
79316;BME280;68779;50.036;19.964;2023-04-03T22:32:14;102416.78;;;3.89;54.92
79316;BME280;68779;50.036;19.964;2023-04-03T22:47:29;102387.50;;;3.82;54.39
79316;BME280;68779;50.036;19.964;2023-04-03T23:18:07;102347.62;;;3.71;55.16
79316;BME280;68779;50.036;19.964;2023-04-03T23:33:21;102345.07;;;3.46;55.42
79316;BME280;68779;50.036;19.964;2023-04-03T23:48:35;102336.38;;;3.40;55.49
